Time;durP1;ratioP1;P1;durP2;ratioP2;P2;SDS_P1;SDS_P2;PMS_P1;PMS_P2;Temp;Humidity;BMP_temperature;BMP_pressure;BME280_temperature;BME280_humidity;BME280_pressure;Samples;Min_cycle;Max_cycle;Signal;HPM_P1;HPM_P2
2022/05/14 00:00:47;;;;;;;14.45;2.30;;;;;;;-142.75;100.00;77588.13;5008386;28;20116;-71
2022/05/14 00:03:12;;;;;;;;;;;;;;;-142.75;100.00;77586.16;5010008;28;20033;-72
2022/05/14 00:05:37;;;;;;;16.85;2.30;;;;;;;-142.75;100.00;77588.13;5009611;28;20003;-69
2022/05/14 00:08:03;;;;;;;7.20;1.70;;;;;;;-142.75;100.00;77594.03;5009205;28;20058;-71
2022/05/14 00:10:29;;;;;;;;;;;;;;;-142.75;100.00;77586.16;5010115;28;20038;-71
2022/05/14 00:13:04;;;;;;;11.45;2.10;;;;;;;-142.75;100.00;77590.09;5024505;28;19913;-70
2022/05/14 00:15:39;;;;;;;14.60;2.08;;;;;;;-142.75;100.00;77592.06;5013731;28;20056;-70
2022/05/14 00:18:06;;;;;;;16.40;3.42;;;;;;;-142.75;100.00;77594.03;5013848;28;20419;-71
2022/05/14 00:20:33;;;;;;;9.88;1.80;;;;;;;-142.75;100.00;77601.91;5028630;28;20105;-70
2022/05/14 00:22:59;;;;;;;13.90;2.53;;;;;;;-142.75;100.00;77603.88;5013644;28;20033;-71
2022/05/14 00:25:25;;;;;;;16.83;2.65;;;;;;;-142.75;100.00;77601.91;5013099;28;20084;-71
2022/05/14 00:27:50;;;;;;;14.27;2.78;;;;;;;-142.75;100.00;77605.84;5012767;28;20484;-70
2022/05/14 00:30:19;;;;;;;17.77;3.40;;;;;;;-142.75;100.00;77609.78;5028019;28;20084;-71
2022/05/14 00:32:44;;;;;;;8.38;2.28;;;;;;;-142.75;100.00;77601.91;5012908;28;20401;-70
2022/05/14 00:35:10;;;;;;;10.10;2.47;;;;;;;-142.75;100.00;77601.91;5012814;28;20080;-73
2022/05/14 00:37:37;;;;;;;17.88;2.95;;;;;;;-142.75;100.00;77601.91;5012774;28;20093;-70
2022/05/14 00:40:05;;;;;;;13.77;2.63;;;;;;;-142.75;100.00;77601.91;5012550;28;20022;-70
2022/05/14 00:42:31;;;;;;;10.82;2.85;;;;;;;-142.75;100.00;77607.81;5012654;28;20096;-71
2022/05/14 00:44:58;;;;;;;20.23;3.70;;;;;;;-142.75;100.00;77607.81;5012767;28;20547;-71
2022/05/14 00:47:24;;;;;;;16.60;3.40;;;;;;;-142.75;100.00;77607.81;5012537;28;20445;-71
2022/05/14 00:49:49;;;;;;;;;;;;;;;-142.75;100.00;77609.78;5013072;28;20487;-71
2022/05/14 00:52:18;;;;;;;10.60;2.80;;;;;;;-142.75;100.00;77611.75;5028251;28;19967;-71
2022/05/14 00:54:49;;;;;;;13.48;3.70;;;;;;;-142.75;100.00;77609.78;5011187;28;20021;-71
2022/05/14 00:57:19;;;;;;;12.68;3.70;;;;;;;-142.75;100.00;77601.91;5011403;28;20064;-71
2022/05/14 00:59:45;;;;;;;13.23;3.47;;;;;;;-142.75;100.00;77599.94;5010955;28;20072;-70
2022/05/14 01:02:10;;;;;;;20.17;3.80;;;;;;;-142.75;100.00;77597.97;5012311;28;20706;-70
2022/05/14 01:04:39;;;;;;;12.63;3.22;;;;;;;-142.75;100.00;77605.84;5012217;28;20029;-70
2022/05/14 01:07:16;;;;;;;13.48;3.33;;;;;;;-142.75;100.00;77605.84;5012305;28;20028;-71
2022/05/14 01:09:45;;;;;;;21.25;4.47;;;;;;;-142.75;100.00;77611.75;5012264;28;20034;-70
2022/05/14 01:12:12;;;;;;;15.00;3.72;;;;;;;-142.75;100.00;77617.66;5012145;28;20040;-72
2022/05/14 01:14:37;;;;;;;21.23;4.10;;;;;;;-142.75;100.00;77611.75;5012022;28;20113;-71
2022/05/14 01:17:03;;;;;;;21.98;3.90;;;;;;;-142.75;100.00;77617.66;5012176;28;20474;-72
2022/05/14 01:19:29;;;;;;;17.70;3.50;;;;;;;-142.75;100.00;77613.72;5012434;28;20033;-70
2022/05/14 01:22:12;;;;;;;11.95;3.70;;;;;;;-142.75;100.00;77623.56;5012650;28;20026;-69
2022/05/14 01:27:42;;;;;;;17.35;4.07;;;;;;;-142.75;100.00;77615.69;5011572;28;20036;-71
2022/05/14 01:30:08;;;;;;;16.25;4.30;;;;;;;-142.75;100.00;77617.66;5011708;28;20124;-70
2022/05/14 01:32:33;;;;;;;;;;;;;;;-142.75;100.00;77611.75;5012175;28;20030;-70
2022/05/14 01:34:59;;;;;;;17.00;3.90;;;;;;;-142.75;100.00;77615.69;5011705;28;20367;-71
2022/05/14 01:37:24;;;;;;;18.92;4.32;;;;;;;-142.75;100.00;77615.69;5026909;28;20049;-70
2022/05/14 01:39:50;;;;;;;14.13;4.40;;;;;;;-142.75;100.00;77625.53;5010200;28;20059;-70
2022/05/14 01:42:16;;;;;;;14.63;4.35;;;;;;;-142.75;100.00;77621.59;5010311;28;20025;-70
2022/05/14 01:44:43;;;;;;;15.38;4.78;;;;;;;-142.75;100.00;77625.53;5011430;28;20076;-70
2022/05/14 01:47:09;;;;;;;22.38;5.40;;;;;;;-142.75;100.00;77625.53;5011458;28;20022;-70
2022/05/14 01:49:34;;;;;;;18.05;5.07;;;;;;;-142.75;100.00;77631.44;5011324;28;20036;-70
2022/05/14 01:52:00;;;;;;;17.65;4.45;;;;;;;-142.75;100.00;77631.44;5011380;28;20030;-69
2022/05/14 01:54:25;;;;;;;18.35;5.03;;;;;;;-142.75;100.00;77633.41;5011418;28;20036;-69
2022/05/14 01:56:50;;;;;;;;;;;;;;;-142.75;100.00;77641.28;5011786;28;20372;-70
2022/05/14 01:59:16;;;;;;;17.67;5.00;;;;;;;-142.75;100.00;77641.28;5026177;28;19944;-71
2022/05/14 02:01:41;;;;;;;21.45;5.88;;;;;;;-142.75;100.00;77651.13;5026459;28;20021;-70
2022/05/14 02:04:10;;;;;;;23.60;6.13;;;;;;;-142.75;100.00;77657.03;5011493;28;20064;-70
2022/05/14 02:06:36;;;;;;;25.50;6.60;;;;;;;-142.75;100.00;77651.13;5010919;28;20572;-70
2022/05/14 02:09:04;;;;;;;22.88;5.30;;;;;;;-142.75;100.00;77660.97;5010899;28;20037;-70
2022/05/14 02:11:30;;;;;;;14.73;5.75;;;;;;;-142.75;100.00;77668.84;5011341;28;20080;-70
2022/05/14 02:13:56;;;;;;;19.08;5.93;;;;;;;-142.75;100.00;77666.88;5009521;28;20018;-70
2022/05/14 02:16:21;;;;;;;;;;;;;;;-142.75;100.00;77668.84;5011566;28;20034;-71
2022/05/14 02:18:47;;;;;;;17.85;5.85;;;;;;;-142.75;100.00;77678.69;5009460;28;19959;-71
2022/05/14 02:21:13;;;;;;;14.18;5.47;;;;;;;-142.75;100.00;77684.59;5011149;28;20038;-70
2022/05/14 02:23:39;;;;;;;21.67;6.25;;;;;;;-142.75;100.00;77676.72;5010982;28;20108;-70
2022/05/14 02:26:06;;;;;;;18.70;5.50;;;;;;;-142.75;100.00;77676.72;5010786;28;20109;-70
2022/05/14 02:28:33;;;;;;;10.63;6.15;;;;;;;-142.75;100.00;77690.50;5025458;28;20026;-70
2022/05/14 02:30:58;;;;;;;13.88;5.50;;;;;;;-142.75;100.00;77680.66;5010763;28;20040;-71
2022/05/14 02:33:23;;;;;;;19.70;5.30;;;;;;;-142.75;100.00;77678.69;5010665;28;20520;-70
2022/05/14 02:35:48;;;;;;;;;;;;;;;-142.75;100.00;77682.63;5011057;28;20044;-70
2022/05/14 02:38:15;;;;;;;21.83;6.18;;;;;;;-142.75;100.00;77680.66;5010053;28;20404;-70
2022/05/14 02:40:42;;;;;;;16.70;6.15;;;;;;;-142.75;100.00;77688.53;5010513;28;20483;-70
2022/05/14 02:43:07;;;;;;;22.95;7.32;;;;;;;-142.75;100.00;77692.47;5010426;28;20030;-71
2022/05/14 02:45:32;;;;;;;23.50;6.78;;;;;;;-142.75;100.00;77694.44;5010397;28;20041;-70
2022/05/14 02:47:58;;;;;;;;;;;;;;;-142.75;100.00;77698.38;5010554;28;20593;-69
2022/05/14 02:50:23;;;;;;;15.63;6.57;;;;;;;-142.75;100.00;77710.19;5010387;28;19924;-70
2022/05/14 02:52:48;;;;;;;21.98;7.80;;;;;;;-142.75;100.00;77706.25;5010798;28;20034;-71
2022/05/14 02:55:14;;;;;;;24.10;8.25;;;;;;;-142.75;100.00;77716.09;5010377;28;20104;-71
2022/05/14 02:57:39;;;;;;;16.90;7.07;;;;;;;-142.75;100.00;77716.09;5010259;28;20029;-70
2022/05/14 03:00:07;;;;;;;;;;;;;;;-142.75;100.00;77720.03;5025606;28;20505;-71
2022/05/14 03:02:32;;;;;;;21.67;8.32;;;;;;;-142.75;100.00;77718.06;5008704;28;19959;-70
2022/05/14 03:04:57;;;;;;;22.75;6.78;;;;;;;-142.75;100.00;77718.06;5010090;28;20057;-68
2022/05/14 03:07:23;;;;;;;14.75;6.88;;;;;;;-142.75;100.00;77716.09;5010038;28;20045;-70
2022/05/14 03:09:48;;;;;;;30.25;8.10;;;;;;;-142.75;100.00;77718.06;5009799;28;20076;-70
2022/05/14 03:12:14;;;;;;;;;;;;;;;-142.75;100.00;77716.09;5010185;28;20022;-70
2022/05/14 03:14:40;;;;;;;19.13;7.18;;;;;;;-142.75;100.00;77718.06;5009965;28;20298;-71
2022/05/14 03:17:06;;;;;;;;;;;;;;;-142.75;100.00;77716.09;5010502;28;20072;-72
2022/05/14 03:19:31;;;;;;;22.60;7.50;;;;;;;-142.75;100.00;77714.13;5009551;28;20395;-70
2022/05/14 03:21:57;;;;;;;;;;;;;;;-142.75;100.00;77716.09;5025966;28;20022;-70
2022/05/14 03:24:23;;;;;;;18.48;7.75;;;;;;;-142.75;100.00;77708.22;5025009;28;19961;-71
2022/05/14 03:26:49;;;;;;;17.30;7.45;;;;;;;-142.75;100.00;77716.09;5009631;28;20018;-69
2022/05/14 03:29:14;;;;;;;21.95;8.30;;;;;;;-142.75;100.00;77712.16;5009505;28;20377;-71
2022/05/14 03:31:40;;;;;;;;;;;;;;;-142.75;100.00;77714.13;5010235;28;20026;-70
2022/05/14 03:34:05;;;;;;;24.15;7.72;;;;;;;-142.75;100.00;77712.16;5024873;28;19979;-71
2022/05/14 03:36:31;;;;;;;20.83;7.93;;;;;;;-142.75;100.00;77712.16;5009672;28;20025;-70
2022/05/14 03:38:56;;;;;;;22.23;7.43;;;;;;;-142.75;100.00;77706.25;5009491;28;20022;-69
2022/05/14 03:41:22;;;;;;;;;;;;;;;-142.75;100.00;77706.25;5010001;28;20037;-71
2022/05/14 03:43:48;;;;;;;19.05;7.85;;;;;;;-142.75;100.00;77700.34;5009739;28;19917;-71
2022/05/14 03:46:14;;;;;;;23.30;7.60;;;;;;;-142.75;100.00;77708.22;5009628;28;20030;-71
2022/05/14 03:48:39;;;;;;;19.42;7.63;;;;;;;-142.75;100.00;77708.22;5010407;28;20487;-70
2022/05/14 03:51:05;;;;;;;;;;;;;;;-142.75;100.00;77720.03;5015200;28;20096;-68
2022/05/14 03:53:31;;;;;;;14.38;6.97;;;;;;;-142.75;100.00;77714.13;5013893;28;20012;-68
2022/05/14 03:55:56;;;;;;;23.42;7.85;;;;;;;-142.75;100.00;77712.16;5028803;28;20487;-69
2022/05/14 03:58:22;;;;;;;17.10;7.60;;;;;;;-142.75;100.00;77718.06;5013258;28;20101;-69
2022/05/14 04:00:48;;;;;;;21.17;7.72;;;;;;;-142.75;100.00;77723.97;5013322;28;20410;-68
2022/05/14 04:03:13;;;;;;;19.77;7.95;;;;;;;-142.75;100.00;77727.94;5013510;28;20105;-68
2022/05/14 04:05:39;;;;;;;20.67;7.72;;;;;;;-142.75;100.00;77727.94;5013429;28;20025;-69
2022/05/14 04:08:04;;;;;;;20.35;7.82;;;;;;;-142.75;100.00;77720.03;5011771;28;20030;-69
2022/05/14 04:10:30;;;;;;;19.50;7.45;;;;;;;-142.75;100.00;77712.16;5013052;28;20088;-68
2022/05/14 04:12:55;;;;;;;23.63;7.80;;;;;;;-142.75;100.00;77708.22;5012031;28;20061;-69
2022/05/14 04:15:23;;;;;;;19.88;8.57;;;;;;;-142.75;100.00;77710.19;5013190;28;20022;-69
2022/05/14 04:17:49;;;;;;;24.27;8.60;;;;;;;-142.75;100.00;77706.25;5027879;28;20022;-68
2022/05/14 04:20:14;;;;;;;22.35;7.90;;;;;;;-142.75;100.00;77712.16;5013061;28;20032;-69
2022/05/14 04:22:39;;;;;;;;;;;;;;;-142.75;100.00;77710.19;5014008;28;20033;-69
2022/05/14 04:25:06;;;;;;;15.60;6.70;;;;;;;-142.75;100.00;77710.19;5013070;28;20294;-69
2022/05/14 04:27:32;;;;;;;17.10;7.10;;;;;;;-142.75;100.00;77706.25;4995590;28;20498;-69
2022/05/14 04:29:57;;;;;;;;;;;;;;;-142.75;100.00;77712.16;5011892;28;20478;-69
2022/05/14 04:32:23;;;;;;;19.38;7.55;;;;;;;-142.75;100.00;77710.19;5012792;28;19913;-69
2022/05/14 04:34:48;;;;;;;18.90;7.88;;;;;;;-142.75;100.00;77714.13;5012718;28;20026;-69
2022/05/14 04:37:13;;;;;;;20.13;7.78;;;;;;;-142.75;100.00;77712.16;5012907;28;20037;-68
2022/05/14 04:39:39;;;;;;;;;;;;;;;-142.75;100.00;77706.25;5013209;28;20021;-68
2022/05/14 04:42:07;;;;;;;30.83;8.05;;;;;;;-142.75;100.00;77700.34;5012583;28;19913;-69
2022/05/14 04:44:33;;;;;;;25.48;8.13;;;;;;;-142.75;100.00;77696.41;5011491;28;20053;-68
2022/05/14 04:47:00;;;;;;;21.15;8.25;;;;;;;-142.75;100.00;77690.50;5027753;28;20383;-69
2022/05/14 04:49:27;;;;;;;22.77;7.43;;;;;;;-142.75;100.00;77686.56;5012167;28;20049;-68
2022/05/14 04:51:53;;;;;;;14.27;7.05;;;;;;;-142.75;100.00;77684.59;5028043;28;20021;-69
2022/05/14 04:54:18;;;;;;;20.25;8.10;;;;;;;-142.75;100.00;77680.66;5012701;28;20076;-69
2022/05/14 04:56:44;;;;;;;19.48;7.47;;;;;;;-142.75;100.00;77674.75;5012411;28;20551;-68
2022/05/14 04:59:10;;;;;;;20.25;7.30;;;;;;;-142.75;100.00;77662.94;5012058;28;20029;-68
2022/05/14 05:01:35;;;;;;;24.95;8.38;;;;;;;-142.75;100.00;77653.09;5011029;28;20510;-69
2022/05/14 05:04:01;;;;;;;30.08;8.15;;;;;;;-142.75;100.00;77649.16;5012336;28;20399;-69
2022/05/14 05:06:27;;;;;;;27.00;7.65;;;;;;;-142.75;100.00;77641.28;5012252;28;20053;-68
2022/05/14 05:08:52;;;;;;;18.65;6.85;;;;;;;-142.75;100.00;77625.53;5012080;28;20204;-69
2022/05/14 05:11:22;;;;;;;23.50;7.85;;;;;;;-142.75;100.00;77621.59;5012103;28;20074;-69
2022/05/14 05:13:47;;;;;;;19.15;7.25;;;;;;;-142.75;100.00;77607.81;5027405;28;20103;-69
2022/05/14 05:16:13;;;;;;;17.05;6.85;;;;;;;-142.75;100.00;77596.00;5012052;28;20491;-69
2022/05/14 05:18:38;;;;;;;22.67;8.20;;;;;;;-142.75;100.00;77588.13;5011673;28;20137;-69
2022/05/14 05:21:06;;;;;;;19.77;7.72;;;;;;;-142.75;100.00;77576.31;5012265;28;20029;-69
2022/05/14 05:23:31;;;;;;;23.60;7.80;;;;;;;-142.75;100.00;77574.34;5027701;28;20021;-68
2022/05/14 05:25:57;;;;;;;23.25;7.95;;;;;;;-142.75;100.00;77564.50;5011705;28;20041;-68
2022/05/14 05:28:23;;;;;;;22.63;7.28;;;;;;;-142.75;100.00;77548.75;5010242;28;20434;-68
2022/05/14 05:30:49;;;;;;;23.88;7.85;;;;;;;-142.75;100.00;77529.06;5010491;28;20045;-69
2022/05/14 05:33:17;;;;;;;21.10;7.28;;;;;;;-142.75;100.00;77507.41;5011668;28;20499;-69
2022/05/14 05:35:43;;;;;;;22.23;7.05;;;;;;;-142.75;100.00;77509.38;5011694;28;20022;-69
2022/05/14 05:38:09;;;;;;;18.10;7.03;;;;;;;-142.75;100.00;77505.44;5026686;28;20130;-69
2022/05/14 05:40:34;;;;;;;19.55;7.03;;;;;;;-142.75;100.00;77501.50;5011398;28;20395;-68
2022/05/14 05:43:00;;;;;;;;;;;;;;;-142.75;100.00;77487.72;5012078;28;20034;-69
2022/05/14 05:45:25;;;;;;;21.73;6.38;;;;;;;-142.75;100.00;77466.03;5011398;28;19921;-69
2022/05/14 05:47:50;;;;;;;;;;;;;;;-142.75;100.00;77436.50;5011709;28;20061;-68
2022/05/14 05:50:16;;;;;;;18.60;6.18;;;;;;;-142.75;100.00;77414.84;5011318;28;19921;-68
2022/05/14 05:52:41;;;;;;;;;;;;;;;-142.75;100.00;77405.00;5012200;28;20056;-68
2022/05/14 05:57:50;;;;;;;14.77;4.82;;;;;;;-142.75;100.00;77377.44;5011449;28;20044;-69
2022/05/14 06:00:23;;;;;;;21.55;5.90;;;;;;;-142.75;100.00;77357.75;5009838;28;20046;-69
2022/05/14 06:02:49;;;;;;;14.63;4.82;;;;;;;-142.75;100.00;77347.91;5011279;28;20480;-69
2022/05/14 06:05:15;;;;;;;13.82;3.95;;;;;;;-142.75;100.00;77334.13;5011198;28;20029;-68
2022/05/14 06:07:40;;;;;;;;;;;;;;;-142.75;100.00;77318.38;5026679;28;20048;-69
2022/05/14 06:10:08;;;;;;;16.38;3.70;;;;;;;-142.75;100.00;77298.69;5010877;28;19917;-68
2022/05/14 06:12:36;;;;;;;15.60;3.33;;;;;;;-142.75;100.00;77282.94;5010500;28;20099;-69
2022/05/14 06:15:02;;;;;;;20.08;4.15;;;;;;;-142.75;100.00;77257.34;5011068;28;20115;-69
2022/05/14 06:17:27;;;;;;;;;;;;;;;-142.75;100.00;77235.69;5009980;28;20428;-69
2022/05/14 06:19:53;;;;;;;12.32;4.15;;;;;;;-142.75;100.00;77219.94;5010722;28;20264;-69
2022/05/14 06:22:18;;;;;;;;;;;;;;;-142.75;100.00;77214.03;5010706;28;20061;-69
2022/05/14 06:24:43;;;;;;;16.73;3.70;;;;;;;-142.75;100.00;77229.78;5010741;28;19944;-68
2022/05/14 06:27:09;;;;;;;;;;;;;;;-142.75;100.00;77219.94;5010958;28;20018;-68
2022/05/14 06:29:34;;;;;;;12.05;3.58;;;;;;;-142.75;100.00;77216.00;5009291;28;19921;-68
2022/05/14 06:31:59;;;;;;;;;;;;;;;-142.75;100.00;77184.50;5011257;28;20022;-68
2022/05/14 06:34:25;;;;;;;12.80;3.22;;;;;;;-142.75;100.00;77164.81;5010691;28;20286;-68
2022/05/14 06:36:51;;;;;;;;;;;;;;;-142.75;100.00;77151.03;5011022;28;20025;-69
2022/05/14 06:39:17;;;;;;;14.13;3.40;;;;;;;-142.75;100.00;77123.47;5010298;28;19913;-69
2022/05/14 06:41:42;;;;;;;;;;;;;;;-142.75;100.00;77119.53;5010802;28;20041;-69
2022/05/14 06:44:08;;;;;;;20.23;4.57;;;;;;;-142.75;100.00;77109.69;5010389;28;19913;-68
2022/05/14 06:46:33;;;;;;;;;;;;;;;-142.75;100.00;77105.75;5025992;28;20033;-68
2022/05/14 06:48:59;;;;;;;13.40;3.72;;;;;;;-142.75;100.00;77099.84;5010211;28;19940;-69
2022/05/14 06:51:25;;;;;;;;;;;;;;;-142.75;100.00;77090.00;5010877;28;20109;-69
2022/05/14 06:53:54;;;;;;;14.18;2.85;;;;;;;-142.75;100.00;77070.31;5010580;28;20052;-69
2022/05/14 06:56:21;;;;;;;15.82;3.33;;;;;;;-142.75;100.00;77066.38;5010215;28;20391;-69
2022/05/14 06:58:49;;;;;;;12.02;3.60;;;;;;;-142.75;100.00;77052.59;5009944;28;20479;-69
2022/05/14 07:01:17;;;;;;;15.27;3.92;;;;;;;-142.75;100.00;77030.94;5008877;28;20025;-69
2022/05/14 07:06:40;;;;;;;15.63;3.50;;;;;;;-142.75;100.00;77007.31;5010055;28;20132;-68
2022/05/14 07:09:09;;;;;;;15.20;3.63;;;;;;;-142.75;100.00;76987.63;5024963;28;20037;-69
2022/05/14 07:11:35;;;;;;;14.73;4.05;;;;;;;-142.75;100.00;76965.97;5023453;28;20037;-69
2022/05/14 07:14:02;;;;;;;14.23;3.65;;;;;;;-142.75;100.00;76940.38;5009948;28;20109;-71
2022/05/14 07:16:27;;;;;;;14.38;3.83;;;;;;;-142.75;100.00;76902.97;5009965;28;20021;-69
2022/05/14 07:18:52;;;;;;;13.68;3.92;;;;;;;-142.75;100.00;76873.44;5009717;28;20434;-69
2022/05/14 07:21:18;;;;;;;;;;;;;;;-142.75;100.00;76845.88;5010394;28;20029;-69
2022/05/14 07:23:43;;;;;;;16.33;2.95;;;;;;;-142.75;100.00;76822.25;5009323;28;19913;-69
2022/05/14 07:26:10;;;;;;;12.25;3.38;;;;;;;-142.75;100.00;76841.94;5009859;28;20022;-69
2022/05/14 07:28:36;;;;;;;9.05;2.58;;;;;;;-142.75;100.00;76847.84;5009417;28;20438;-69
2022/05/14 07:31:02;;;;;;;14.25;3.38;;;;;;;-142.75;100.00;76853.75;5024868;28;20030;-69
2022/05/14 07:33:28;;;;;;;17.70;3.50;;;;;;;-142.75;100.00;76838.00;5009799;28;20071;-69
2022/05/14 07:35:55;;;;;;;9.73;2.78;;;;;;;-142.75;100.00;76796.69;5009619;28;20101;-69
2022/05/14 07:38:21;;;;;;;10.48;2.88;;;;;;;-142.75;100.00;76812.41;5024432;28;20079;-69
2022/05/14 07:40:46;;;;;;;11.23;3.05;;;;;;;-142.75;100.00;76771.09;5009558;28;20051;-69
2022/05/14 07:43:20;;;;;;;16.33;3.15;;;;;;;-142.75;100.00;76741.56;5009821;28;20025;-69
2022/05/14 07:45:50;;;;;;;9.93;2.97;;;;;;;-142.75;100.00;76737.63;5009764;28;20029;-69
2022/05/14 07:48:20;;;;;;;9.98;2.78;;;;;;;-142.75;100.00;76715.97;5009149;28;20018;-69
2022/05/14 07:50:46;;;;;;;10.77;2.55;;;;;;;-142.75;100.00;76727.78;5009706;28;20038;-68
2022/05/14 07:53:13;;;;;;;14.43;3.03;;;;;;;-142.75;100.00;76678.56;5010020;28;20045;-69
2022/05/14 07:55:39;;;;;;;11.25;2.47;;;;;;;-142.75;100.00;76654.94;5008852;28;20590;-69
2022/05/14 07:58:05;;;;;;;9.93;2.58;;;;;;;-142.75;100.00;76635.25;5008146;28;20017;-69
2022/05/14 08:00:31;;;;;;;14.43;2.67;;;;;;;-142.75;100.00;76637.22;5007445;28;20033;-69
2022/05/14 08:02:57;;;;;;;7.82;2.20;;;;;;;-142.75;100.00;76656.91;5008581;28;20638;-70
2022/05/14 08:05:22;;;;;;;13.57;2.83;;;;;;;-142.75;100.00;76694.31;5023517;28;20056;-68
2022/05/14 08:07:48;;;;;;;7.55;2.47;;;;;;;-142.75;100.00;76672.66;5008350;28;20022;-69
2022/05/14 08:10:16;;;;;;;17.30;2.80;;;;;;;-142.75;100.00;76633.28;5008205;28;20056;-67
2022/05/14 08:12:45;;;;;;;17.38;3.10;;;;;;;-142.75;100.00;76597.84;5008298;28;20029;-68
2022/05/14 08:15:13;;;;;;;11.52;2.75;;;;;;;-142.75;100.00;76637.22;5007821;28;20034;-69
2022/05/14 08:17:38;;;;;;;11.20;2.42;;;;;;;-142.75;100.00;76652.97;5008893;28;20504;-69
2022/05/14 08:20:05;;;;;;;13.82;2.60;;;;;;;-142.75;100.00;76643.13;5008310;28;20030;-69
2022/05/14 08:25:14;;;;;;;9.55;2.83;;;;;;;-142.75;100.00;76593.91;5008223;28;20044;-67
2022/05/14 08:27:47;;;;;;;13.90;2.65;;;;;;;-142.75;100.00;76588.00;5008183;28;20022;-68
2022/05/14 08:30:12;;;;;;;14.77;2.40;;;;;;;-142.75;100.00;76574.22;5008203;28;20075;-68
2022/05/14 08:32:37;;;;;;;12.90;3.08;;;;;;;-142.75;100.00;76540.75;5008400;28;20434;-68
2022/05/14 08:35:03;;;;;;;12.85;2.28;;;;;;;-142.75;99.36;76503.38;5010147;28;20018;-68
2022/05/14 08:37:28;;;;;;;9.38;2.33;;;;;;;-142.75;91.76;76487.63;5011900;28;20535;-69
2022/05/14 08:39:53;;;;;;;11.32;2.40;;;;;;;-142.75;92.35;76487.63;5011374;28;20048;-69
2022/05/14 08:42:18;;;;;;;13.05;2.67;;;;;;;-142.75;98.20;76527.00;5011675;28;20475;-68
2022/05/14 08:44:46;;;;;;;16.60;2.72;;;;;;;-142.75;87.95;76491.56;5008108;28;20049;-69
2022/05/14 08:47:28;;;;;;;13.82;2.40;;;;;;;-142.75;84.91;76481.72;5010460;28;20391;-69
2022/05/14 08:49:55;;;;;;;13.30;2.20;;;;;;;-142.75;85.62;76440.38;5012005;28;20045;-69
2022/05/14 08:52:27;;;;;;;15.45;2.72;;;;;;;-142.75;81.68;76436.44;5012418;28;20108;-69
2022/05/14 08:55:04;;;;;;;13.13;2.50;;;;;;;-142.75;83.90;76430.53;5012705;28;20025;-69
2022/05/14 08:57:53;;;;;;;11.98;2.83;;;;;;;-142.75;86.51;76410.84;5012781;28;20079;-69
2022/05/14 09:00:19;;;;;;;11.80;2.50;;;;;;;-142.75;82.58;76359.66;5027851;28;20032;-69
2022/05/14 09:02:48;;;;;;;14.77;2.88;;;;;;;-142.75;80.19;76355.72;5011622;28;20026;-69
2022/05/14 09:05:26;;;;;;;12.23;2.30;;;;;;;-142.75;75.70;76359.66;5012541;28;20021;-70
2022/05/14 09:07:52;;;;;;;15.10;3.05;;;;;;;-142.75;73.86;76322.28;5011005;28;20034;-70
2022/05/14 09:10:22;;;;;;;15.85;3.50;;;;;;;-142.75;72.70;76308.50;5012330;28;20103;-70
2022/05/14 09:12:53;;;;;;;10.60;2.20;;;;;;;-142.75;73.09;76332.13;5010931;28;20038;-70
2022/05/14 09:15:18;;;;;;;12.27;3.00;;;;;;;-142.75;75.70;76353.78;5027887;28;20068;-69
2022/05/14 09:17:44;;;;;;;23.05;2.92;;;;;;;-142.75;78.38;76345.91;5012415;28;20491;-67
2022/05/14 09:20:09;;;;;;;12.30;3.30;;;;;;;-142.75;75.02;76340.00;5012190;28;20088;-68
2022/05/14 09:22:44;;;;;;;13.40;2.97;;;;;;;-142.75;71.56;76361.63;5011022;28;20414;-68
2022/05/14 09:25:15;;;;;;;9.70;2.65;;;;;;;-142.75;72.22;76389.19;5012050;28;20030;-69
2022/05/14 09:27:45;;;;;;;11.02;2.63;;;;;;;-142.75;71.50;76365.56;5012060;28;20220;-68
2022/05/14 09:30:22;;;;;;;15.02;2.78;;;;;;;-142.75;74.05;76371.47;5027423;28;20369;-68
2022/05/14 09:32:49;;;;;;;13.07;2.95;;;;;;;-142.75;75.89;76408.88;5012115;28;20025;-70
2022/05/14 09:35:21;;;;;;;10.52;2.65;;;;;;;-142.75;79.21;76412.81;5027194;28;20522;-69
2022/05/14 09:37:46;;;;;;;16.50;3.22;;;;;;;-142.75;77.16;76397.06;5011867;28;20026;-69
2022/05/14 09:40:25;;;;;;;12.15;2.80;;;;;;;-142.75;72.26;76365.56;5027004;28;20399;-69
2022/05/14 09:43:06;;;;;;;15.35;3.50;;;;;;;-142.75;73.24;76381.31;5010624;28;20036;-69
2022/05/14 09:45:37;;;;;;;17.85;3.50;;;;;;;-142.75;77.16;76365.56;5011652;28;20037;-69
2022/05/14 09:48:37;;;;;;;18.65;3.30;;;;;;;-142.75;72.77;76318.34;5026145;28;20053;-70
2022/05/14 09:51:08;;;;;;;13.63;3.03;;;;;;;-142.75;69.37;76308.50;5011505;28;20084;-71
2022/05/14 09:53:36;;;;;;;12.55;2.72;;;;;;;-142.75;70.66;76326.22;5027028;28;20565;-69
2022/05/14 09:56:32;;;;;;;11.07;2.72;;;;;;;-142.75;71.53;76300.63;5011395;28;20041;-70
2022/05/14 09:59:21;;;;;;;14.27;2.90;;;;;;;-142.75;71.52;76280.94;5026597;28;20111;-70
2022/05/14 10:01:53;;;;;;;11.80;2.67;;;;;;;-142.75;68.85;76237.63;5002465;28;20124;-70
2022/05/14 10:04:47;;;;;;;13.63;3.05;;;;;;;-142.75;67.56;76206.13;5008123;28;20036;-69
2022/05/14 10:07:17;;;;;;;15.00;2.83;;;;;;;-142.75;67.01;76223.84;5004415;28;20045;-70
2022/05/14 10:10:01;;;;;;;11.55;2.80;;;;;;;-142.75;71.35;76259.28;5011247;28;20060;-70
2022/05/14 10:12:37;;;;;;;18.92;3.00;;;;;;;-142.75;69.91;76265.19;5026746;28;20030;-69
2022/05/14 10:15:13;;;;;;;11.93;2.80;;;;;;;-142.75;65.99;76221.88;5011565;28;20708;-70
2022/05/14 10:18:03;;;;;;;17.65;3.35;;;;;;;-142.75;65.17;76194.34;5011422;28;20029;-70
2022/05/14 10:20:46;;;;;;;11.50;2.55;;;;;;;-142.75;63.73;76154.97;5011217;28;20025;-69
2022/05/14 10:29:44;;;;;;;8.88;2.70;;;;;;;-142.75;65.63;76251.41;5011124;28;20487;-69
2022/05/14 10:32:19;;;;;;;9.98;2.60;;;;;;;-142.75;65.71;76251.41;5010913;28;20121;-69
2022/05/14 10:34:47;;;;;;;12.77;2.85;;;;;;;-142.75;68.27;76288.81;5011092;28;20503;-70
2022/05/14 10:37:32;;;;;;;11.00;3.38;;;;;;;-142.75;67.93;76275.03;5026158;28;20026;-69
2022/05/14 10:40:31;;;;;;;11.55;3.63;;;;;;;-142.75;66.78;76215.97;5010561;28;20391;-70
2022/05/14 10:43:33;;;;;;;15.30;3.78;;;;;;;-142.75;68.24;76131.34;5011017;28;20049;-69
2022/05/14 10:46:10;;;;;;;15.75;3.10;;;;;;;-142.75;69.47;76139.22;5009507;28;20120;-69
2022/05/14 10:48:43;;;;;;;11.60;2.75;;;;;;;-142.75;64.68;76123.47;5010676;28;20053;-69
2022/05/14 10:51:12;;;;;;;11.70;3.08;;;;;;;-142.75;60.56;76074.25;5010757;28;20081;-70
2022/05/14 10:53:39;;;;;;;15.65;3.25;;;;;;;-142.75;59.32;76054.59;5010507;28;20230;-69
2022/05/14 10:56:22;;;;;;;10.48;2.83;;;;;;;-142.75;59.86;76151.03;5004312;28;20079;-70
2022/05/14 10:59:08;;;;;;;12.88;2.92;;;;;;;-142.75;64.79;76219.91;5016180;28;20030;-70
2022/05/14 11:02:01;;;;;;;12.57;3.08;;;;;;;-142.75;68.92;76290.78;5002573;28;20105;-69
2022/05/14 11:04:31;;;;;;;11.45;3.40;;;;;;;-142.75;69.33;76288.81;5010803;28;20498;-69
2022/05/14 11:07:06;;;;;;;13.35;4.05;;;;;;;-142.75;69.06;76296.69;5010440;28;20041;-70
2022/05/14 11:09:34;;;;;;;16.58;3.47;;;;;;;-142.75;68.36;76322.28;5010095;28;20033;-70
2022/05/14 11:12:10;;;;;;;12.05;3.90;;;;;;;-142.75;72.05;76357.69;5010281;28;20037;-70
2022/05/14 11:14:37;;;;;;;12.90;3.63;;;;;;;-142.75;72.70;76357.69;5010329;28;20030;-71
2022/05/14 11:17:03;;;;;;;14.23;3.60;;;;;;;-142.75;76.95;76359.66;5010505;28;20142;-71
2022/05/14 11:19:32;;;;;;;16.42;4.63;;;;;;;-142.75;76.18;76385.25;5008731;28;20049;-71
2022/05/14 11:21:59;;;;;;;18.05;3.88;;;;;;;-142.75;75.66;76361.63;5010111;28;20029;-67
2022/05/14 11:24:37;;;;;;;15.50;3.63;;;;;;;-142.75;75.85;76290.78;5009945;28;20614;-69
2022/05/14 11:27:03;;;;;;;11.90;3.42;;;;;;;-142.75;70.01;76251.41;5010284;28;20037;-70
2022/05/14 11:29:34;;;;;;;12.60;3.60;;;;;;;-142.75;71.96;76176.63;5008504;28;20038;-69
2022/05/14 11:32:08;;;;;;;10.50;3.47;;;;;;;-142.75;67.07;76131.34;5008081;28;20049;-69
2022/05/14 11:34:34;;;;;;;14.27;3.70;;;;;;;-142.75;68.46;76105.75;5005384;28;20049;-69